createdAt,value
2024-01-31T00:36:39.517Z,59.42
2024-01-31T00:37:05.518Z,62.05
2024-01-31T00:38:05.646Z,78.65
2024-01-31T00:39:05.730Z,97.37
2024-01-31T00:40:05.432Z,114.68
2024-01-31T00:41:05.382Z,129.45
2024-01-31T00:42:05.324Z,130.02
2024-01-31T00:43:05.374Z,113.49
2024-01-31T00:44:05.313Z,103.89
2024-01-31T00:45:05.348Z,95.19
2024-01-31T00:46:05.421Z,87.18
2024-01-31T00:47:05.403Z,81.94
2024-01-31T00:48:10.449Z,77.39
2024-01-31T00:49:05.441Z,74.60
2024-01-31T00:50:05.456Z,71.28
2024-01-31T00:51:05.320Z,69.23
2024-01-31T00:52:05.323Z,65.25
2024-01-31T00:53:05.349Z,62.68
2024-01-31T00:54:05.360Z,60.27
2024-01-31T00:55:05.386Z,59.97
2024-01-31T00:56:05.444Z,58.30
2024-01-31T00:57:05.491Z,57.41
2024-01-31T00:58:05.538Z,55.30
2024-01-31T00:59:05.553Z,55.73
2024-01-31T01:00:05.624Z,54.44
2024-01-31T01:01:05.810Z,53.70
2024-01-31T01:02:05.806Z,52.53
2024-01-31T01:03:05.821Z,50.97
2024-01-31T01:04:05.937Z,50.14
2024-01-31T01:05:05.907Z,50.79
2024-01-31T01:06:06.147Z,50.55
2024-01-31T01:07:05.996Z,50.00
2024-01-31T01:08:06.035Z,51.06
2024-01-31T01:09:06.049Z,52.00
2024-01-31T01:10:06.183Z,51.89
2024-01-31T01:11:06.194Z,50.51
2024-01-31T01:12:06.157Z,50.33
2024-01-31T01:13:06.310Z,50.98
2024-01-31T01:14:06.273Z,52.21
2024-01-31T01:15:14.772Z,51.53
2024-01-31T01:16:07.327Z,51.54
2024-01-31T01:17:06.288Z,51.21
2024-01-31T01:18:06.462Z,50.97
2024-01-31T01:19:06.339Z,50.44
2024-01-31T01:20:06.273Z,50.07
2024-01-31T01:21:06.236Z,51.58
2024-01-31T01:22:06.352Z,51.17
2024-01-31T01:23:06.270Z,50.99
2024-01-31T01:24:06.252Z,51.42
2024-01-31T01:25:06.276Z,51.50
2024-01-31T01:26:06.352Z,52.64
2024-01-31T01:27:06.359Z,52.58
2024-01-31T01:28:06.354Z,51.10
2024-01-31T01:29:06.411Z,52.19
2024-01-31T01:30:06.407Z,51.91
2024-01-31T01:31:06.409Z,50.67
2024-01-31T01:32:06.416Z,50.95
2024-01-31T01:33:06.611Z,50.92
2024-01-31T01:34:06.616Z,52.00
2024-01-31T01:35:06.639Z,51.67
2024-01-31T01:36:06.587Z,51.42
2024-01-31T01:37:06.700Z,51.96
2024-01-31T01:38:06.724Z,51.12
2024-01-31T01:39:06.724Z,51.04
2024-01-31T01:40:06.733Z,51.89
2024-01-31T01:41:06.734Z,52.14
2024-01-31T01:42:06.764Z,51.24
2024-01-31T01:43:06.789Z,51.99
2024-01-31T01:44:07.028Z,51.40
2024-01-31T01:45:06.895Z,51.69
2024-01-31T01:46:06.963Z,51.95
2024-01-31T01:47:07.067Z,51.92
2024-01-31T01:48:07.074Z,52.42
2024-01-31T01:49:07.156Z,51.52
2024-01-31T01:50:07.093Z,53.06
2024-01-31T01:51:07.095Z,52.57
2024-01-31T01:52:07.194Z,51.95
2024-01-31T01:53:07.201Z,52.02
2024-01-31T01:54:07.307Z,50.13
2024-01-31T01:55:07.315Z,52.07
2024-01-31T01:56:07.313Z,50.00
2024-01-31T01:57:07.338Z,51.96
2024-01-31T01:58:07.452Z,53.23
2024-01-31T01:59:07.478Z,51.64
2024-01-31T02:00:07.404Z,53.22
2024-01-31T02:01:07.589Z,51.49
2024-01-31T02:02:07.567Z,52.75
2024-01-31T02:07:19.328Z,51.85
2024-01-31T02:07:38.815Z,52.28
2024-01-31T02:08:38.949Z,56.30
2024-01-31T02:09:39.237Z,60.70
2024-01-31T02:10:38.722Z,65.05
2024-01-31T02:11:38.758Z,69.34
2024-01-31T02:12:38.764Z,71.28
2024-01-31T02:13:38.804Z,66.89
2024-01-31T02:14:38.681Z,63.77
2024-01-31T02:15:38.729Z,61.37
2024-01-31T02:16:38.750Z,59.17
2024-01-31T02:17:38.872Z,58.69
2024-01-31T02:18:38.777Z,57.74
2024-01-31T02:19:38.730Z,57.77
2024-01-31T02:20:38.721Z,56.90
2024-01-31T02:21:38.715Z,57.12
2024-01-31T02:22:38.880Z,56.63
2024-01-31T02:23:38.716Z,56.19
2024-01-31T02:24:38.712Z,55.00
2024-01-31T02:25:38.858Z,55.83
2024-01-31T02:26:38.732Z,54.32
2024-01-31T02:27:38.748Z,54.13
2024-01-31T02:28:38.967Z,54.85
2024-01-31T02:29:38.904Z,53.57
2024-01-31T02:30:38.864Z,54.16
2024-01-31T02:31:38.981Z,53.50
2024-01-31T02:32:38.967Z,51.55
2024-01-31T02:33:38.986Z,51.68
2024-01-31T02:34:39.080Z,53.12
2024-01-31T02:35:39.067Z,51.72
2024-01-31T02:36:39.111Z,54.71
2024-01-31T02:37:39.212Z,53.12
2024-01-31T02:38:39.119Z,53.26
2024-01-31T02:39:39.125Z,53.76
2024-01-31T02:40:39.204Z,54.26
2024-01-31T02:41:39.291Z,52.53
2024-01-31T02:42:39.290Z,53.11
2024-01-31T02:43:39.386Z,53.46
2024-01-31T02:44:39.339Z,52.89
2024-01-31T02:45:39.402Z,53.46
2024-01-31T02:46:39.456Z,53.44
2024-01-31T02:47:39.460Z,50.61
2024-01-31T02:48:39.585Z,53.38
2024-01-31T02:49:39.521Z,52.82
2024-01-31T02:50:39.528Z,51.74
2024-01-31T02:51:39.491Z,51.51
2024-01-31T02:52:39.565Z,52.95
2024-01-31T02:53:39.646Z,50.11
2024-01-31T02:54:39.608Z,52.09
2024-01-31T02:55:39.844Z,51.05
2024-01-31T02:56:39.704Z,52.49
2024-01-31T02:57:41.585Z,52.49
2024-01-31T02:58:39.828Z,53.18
2024-01-31T02:59:39.789Z,51.73
2024-01-31T03:00:39.867Z,52.99
2024-01-31T03:01:39.858Z,51.32
2024-01-31T03:02:39.821Z,53.16
2024-01-31T03:03:39.951Z,52.95
2024-01-31T03:04:40.057Z,52.00
2024-01-31T03:05:40.112Z,51.70
2024-01-31T03:06:40.004Z,52.48
2024-01-31T03:07:40.104Z,51.94
2024-01-31T03:08:40.005Z,50.88
2024-01-31T03:09:40.001Z,51.31
2024-01-31T03:10:40.121Z,53.42
2024-01-31T03:11:40.166Z,51.98
2024-01-31T03:12:40.152Z,52.36
2024-01-31T03:13:40.180Z,52.70
2024-01-31T03:14:40.201Z,53.08
2024-01-31T03:15:40.347Z,53.74
2024-01-31T03:16:40.364Z,51.83
2024-01-31T03:17:40.402Z,52.30
2024-01-31T03:18:40.360Z,52.51
2024-01-31T03:19:40.459Z,52.28
2024-01-31T03:20:40.369Z,53.11
2024-01-31T03:21:40.393Z,53.26
2024-01-31T03:22:40.505Z,51.99
2024-01-31T03:23:40.579Z,52.67
2024-01-31T03:24:40.506Z,52.37
2024-01-31T03:25:40.658Z,52.55
2024-01-31T03:26:40.566Z,53.12
2024-01-31T03:27:40.634Z,53.17
2024-01-31T03:28:40.702Z,53.08
2024-01-31T03:29:40.837Z,52.71
2024-01-31T03:30:40.745Z,51.20
2024-01-31T03:31:40.825Z,52.18
2024-01-31T03:32:40.906Z,52.62
2024-01-31T03:33:40.937Z,52.69
2024-01-31T03:34:40.978Z,52.67
2024-01-31T03:35:40.846Z,52.04
2024-01-31T03:36:40.947Z,53.29
2024-01-31T03:37:41.029Z,51.51
2024-01-31T03:38:41.075Z,54.02
2024-01-31T03:39:41.104Z,52.04
2024-01-31T03:40:41.154Z,51.70
2024-01-31T03:41:41.093Z,51.76
2024-01-31T03:42:41.205Z,52.60
2024-01-31T03:43:41.238Z,51.57
2024-01-31T03:44:41.272Z,53.00
2024-01-31T03:45:41.232Z,52.48
2024-01-31T03:46:41.349Z,51.53
2024-01-31T03:47:41.360Z,53.59
2024-01-31T03:48:41.472Z,52.49
2024-01-31T03:49:41.412Z,52.35
2024-01-31T03:50:41.379Z,52.58
2024-01-31T03:51:41.475Z,52.81
2024-01-31T03:52:41.592Z,53.94
2024-01-31T03:53:41.561Z,51.97
2024-01-31T03:54:41.513Z,52.71
2024-01-31T03:55:41.677Z,52.26
2024-01-31T03:56:41.607Z,52.54
2024-01-31T03:57:41.584Z,53.28
2024-01-31T03:58:41.689Z,51.38
2024-01-31T03:59:41.815Z,52.22
2024-01-31T04:00:41.696Z,52.42
2024-01-31T04:01:41.849Z,54.47
2024-01-31T04:02:41.786Z,52.69
2024-01-31T04:03:41.917Z,52.09
2024-01-31T04:04:42.111Z,51.82
2024-01-31T04:05:41.943Z,52.37
2024-01-31T04:06:41.900Z,53.66
2024-01-31T04:07:45.279Z,51.27
2024-01-31T04:08:42.009Z,51.33
2024-01-31T04:09:41.954Z,51.53
2024-01-31T04:10:42.109Z,51.89
2024-01-31T04:11:41.964Z,52.56
2024-01-31T04:12:41.993Z,52.67
2024-01-31T05:28:33.424Z,53.87
2024-01-31T05:28:56.537Z,56.07
2024-01-31T05:29:56.701Z,80.11
2024-01-31T05:30:57.097Z,109.32
2024-01-31T05:31:56.540Z,138.48
2024-01-31T05:32:56.709Z,164.72
2024-01-31T05:33:56.551Z,171.27
2024-01-31T05:34:56.614Z,149.77
2024-01-31T05:35:56.577Z,132.95
2024-01-31T05:36:56.563Z,118.97
2024-01-31T05:37:56.553Z,109.29
2024-01-31T05:55:08.832Z,101.03
2024-01-31T05:55:29.881Z,102.15
2024-01-31T05:56:29.921Z,111.88
2024-01-31T05:57:30.063Z,121.14
2024-01-31T05:58:30.314Z,126.41
2024-01-31T05:59:29.737Z,126.90
2024-01-31T06:00:29.821Z,117.05
2024-01-31T06:01:29.885Z,106.03
2024-01-31T06:02:30.241Z,97.01
2024-01-31T06:03:29.802Z,89.67
2024-01-31T06:04:29.863Z,81.79
2024-01-31T06:05:29.869Z,76.80
2024-01-31T06:06:29.803Z,73.82
2024-01-31T06:07:29.771Z,69.72
2024-01-31T06:08:29.854Z,68.07
2024-01-31T06:09:29.748Z,62.40
2024-01-31T06:10:29.753Z,60.59
2024-01-31T06:11:29.798Z,58.26
2024-01-31T06:12:29.764Z,58.20
2024-01-31T06:13:29.840Z,56.25
2024-01-31T06:14:29.755Z,55.04
2024-01-31T06:15:29.836Z,54.35
2024-01-31T06:16:29.767Z,52.55
2024-01-31T06:17:29.819Z,50.59
2024-01-31T06:18:29.782Z,50.73
2024-01-31T06:19:29.909Z,50.67
2024-01-31T06:20:29.775Z,50.50
2024-01-31T06:21:29.770Z,50.93
2024-01-31T06:22:29.779Z,51.18
2024-01-31T06:23:29.753Z,51.39
2024-01-31T06:24:29.770Z,51.60
2024-01-31T06:25:29.864Z,50.58
2024-01-31T06:26:29.824Z,50.42
2024-01-31T06:27:29.905Z,51.29
2024-01-31T06:28:29.794Z,51.62
2024-01-31T06:29:29.883Z,50.72
2024-01-31T06:30:29.932Z,51.37
2024-01-31T06:31:30.126Z,50.00
2024-01-31T06:32:29.930Z,51.59
2024-01-31T06:33:30.052Z,49.47
2024-01-31T06:34:30.129Z,51.40
2024-01-31T06:35:30.040Z,52.96
2024-01-31T06:45:52.365Z,52.24
2024-01-31T06:46:22.422Z,53.91
2024-01-31T06:47:22.171Z,62.09
2024-01-31T06:48:22.582Z,71.19
2024-01-31T06:49:22.151Z,80.17
2024-01-31T06:50:22.040Z,86.51
2024-01-31T06:51:22.163Z,84.92
2024-01-31T06:52:22.039Z,78.65
2024-01-31T06:53:21.995Z,74.26
2024-01-31T06:54:21.978Z,69.23
2024-01-31T06:55:22.096Z,65.38
2024-01-31T06:56:22.054Z,63.37
2024-01-31T06:57:22.094Z,61.41
2024-01-31T06:58:22.111Z,59.03
2024-01-31T06:59:22.018Z,58.49
2024-01-31T07:00:22.052Z,55.22
2024-01-31T07:01:22.039Z,56.50
2024-01-31T07:02:21.982Z,56.61
2024-01-31T07:03:22.053Z,55.15
2024-01-31T07:04:22.120Z,53.63
2024-01-31T07:05:22.104Z,53.63
2024-01-31T07:06:22.030Z,51.83
2024-01-31T07:07:22.108Z,52.55
2024-01-31T07:08:22.078Z,52.73
2024-01-31T07:09:22.033Z,52.27
2024-01-31T07:11:00.185Z,50.83
2024-01-31T07:11:22.044Z,50.90
2024-01-31T07:12:21.992Z,51.79
2024-01-31T07:13:22.242Z,52.44
2024-01-31T07:14:22.314Z,52.76
2024-01-31T07:15:22.903Z,52.92
2024-01-31T07:16:22.169Z,52.68
2024-01-31T07:17:22.237Z,51.93
2024-01-31T07:18:22.223Z,50.74
2024-01-31T07:19:22.273Z,51.51
2024-01-31T07:20:22.092Z,51.69
2024-01-31T07:21:22.089Z,50.39
2024-01-31T07:22:22.172Z,51.21
2024-01-31T10:10:04.750Z,50.00
2024-01-31T10:10:28.151Z,50.00
2024-01-31T10:11:28.554Z,50.00
2024-01-31T11:41:09.146Z,50.00
2024-01-31T11:41:33.288Z,50.00
2024-01-31T11:42:32.789Z,50.00
2024-01-31T11:43:32.746Z,50.00
2024-01-31T11:44:33.096Z,50.00
2024-01-31T11:45:32.904Z,50.00
2024-01-31T11:46:32.787Z,40.87
2024-01-31T11:47:34.316Z,25.50
2024-01-31T11:58:33.822Z,50.00
2024-01-31T11:58:57.252Z,50.00
2024-01-31T11:59:57.074Z,50.00
2024-01-31T12:00:57.194Z,50.00
2024-01-31T12:01:57.269Z,50.00
2024-01-31T12:02:56.608Z,50.00
2024-01-31T12:12:43.498Z,50.00
2024-01-31T12:13:09.256Z,50.00
2024-01-31T12:14:09.845Z,50.00
2024-01-31T12:15:10.377Z,50.00
2024-01-31T12:16:15.636Z,50.00
2024-01-31T12:17:09.050Z,50.00
2024-01-31T12:18:12.812Z,50.00
2024-01-31T12:19:09.288Z,50.00
2024-01-31T12:23:11.572Z,50.00
2024-01-31T12:23:34.789Z,50.00
2024-01-31T18:30:15.544Z,50.00
2024-01-31T18:30:41.677Z,50.00
